sensor_id;sensor_type;location;lat;lon;timestamp;pressure;altitude;pressure_sealevel;temperature;humidity
36828;BME280;22766;48.042;11.192;2023-01-27T00:00:37;94998.25;;;-2.46;100.00
36828;BME280;22766;48.042;11.192;2023-01-27T00:03:03;95000.69;;;-2.44;100.00
36828;BME280;22766;48.042;11.192;2023-01-27T00:05:30;94993.88;;;-2.42;100.00
36828;BME280;22766;48.042;11.192;2023-01-27T00:07:57;94991.41;;;-2.44;100.00
36828;BME280;22766;48.042;11.192;2023-01-27T00:10:25;94989.84;;;-2.46;100.00
36828;BME280;22766;48.042;11.192;2023-01-27T00:12:52;94983.84;;;-2.44;100.00
36828;BME280;22766;48.042;11.192;2023-01-27T00:15:37;94971.34;;;-2.47;100.00
36828;BME280;22766;48.042;11.192;2023-01-27T00:18:03;94977.38;;;-2.49;100.00
36828;BME280;22766;48.042;11.192;2023-01-27T00:20:30;94984.72;;;-2.45;100.00
36828;BME280;22766;48.042;11.192;2023-01-27T00:23:24;94981.75;;;-2.36;100.00
36828;BME280;22766;48.042;11.192;2023-01-27T00:26:15;94974.56;;;-2.43;100.00
36828;BME280;22766;48.042;11.192;2023-01-27T00:28:43;94985.78;;;-2.49;100.00
36828;BME280;22766;48.042;11.192;2023-01-27T00:31:12;94984.97;;;-2.49;100.00
36828;BME280;22766;48.042;11.192;2023-01-27T00:33:58;94990.22;;;-2.54;100.00
36828;BME280;22766;48.042;11.192;2023-01-27T00:36:35;94996.03;;;-2.52;100.00
36828;BME280;22766;48.042;11.192;2023-01-27T00:39:06;94987.56;;;-2.51;100.00
36828;BME280;22766;48.042;11.192;2023-01-27T00:41:34;94990.84;;;-2.49;100.00
36828;BME280;22766;48.042;11.192;2023-01-27T00:44:01;94989.84;;;-2.46;100.00
36828;BME280;22766;48.042;11.192;2023-01-27T00:46:28;94983.56;;;-2.55;100.00
36828;BME280;22766;48.042;11.192;2023-01-27T00:48:54;94985.47;;;-2.60;100.00
36828;BME280;22766;48.042;11.192;2023-01-27T00:51:24;94980.19;;;-2.55;100.00
36828;BME280;22766;48.042;11.192;2023-01-27T00:53:50;94986.50;;;-2.64;100.00
36828;BME280;22766;48.042;11.192;2023-01-27T00:56:17;94985.91;;;-2.69;100.00
36828;BME280;22766;48.042;11.192;2023-01-27T00:58:44;94981.69;;;-2.68;100.00
36828;BME280;22766;48.042;11.192;2023-01-27T01:01:14;94977.84;;;-2.58;100.00
36828;BME280;22766;48.042;11.192;2023-01-27T01:03:41;94981.16;;;-2.58;100.00
36828;BME280;22766;48.042;11.192;2023-01-27T01:06:10;94990.16;;;-2.52;100.00
36828;BME280;22766;48.042;11.192;2023-01-27T01:08:37;94991.56;;;-2.47;100.00
36828;BME280;22766;48.042;11.192;2023-01-27T01:11:07;95007.47;;;-2.45;100.00
36828;BME280;22766;48.042;11.192;2023-01-27T01:13:35;95005.63;;;-2.41;100.00
36828;BME280;22766;48.042;11.192;2023-01-27T01:16:07;94998.84;;;-2.41;100.00
36828;BME280;22766;48.042;11.192;2023-01-27T01:18:34;95001.22;;;-2.38;100.00
36828;BME280;22766;48.042;11.192;2023-01-27T01:21:01;95008.22;;;-2.43;100.00
36828;BME280;22766;48.042;11.192;2023-01-27T01:23:27;95006.66;;;-2.45;100.00
36828;BME280;22766;48.042;11.192;2023-01-27T01:25:55;95009.13;;;-2.44;100.00
36828;BME280;22766;48.042;11.192;2023-01-27T01:28:23;95006.41;;;-2.41;100.00
36828;BME280;22766;48.042;11.192;2023-01-27T01:30:49;95000.63;;;-2.43;100.00
36828;BME280;22766;48.042;11.192;2023-01-27T01:33:16;94998.75;;;-2.39;100.00
36828;BME280;22766;48.042;11.192;2023-01-27T01:35:43;95004.81;;;-2.42;100.00
36828;BME280;22766;48.042;11.192;2023-01-27T01:38:10;95008.00;;;-2.38;100.00
36828;BME280;22766;48.042;11.192;2023-01-27T01:40:44;95005.47;;;-2.38;100.00
36828;BME280;22766;48.042;11.192;2023-01-27T01:43:15;94994.03;;;-2.45;100.00
36828;BME280;22766;48.042;11.192;2023-01-27T01:48:17;94992.47;;;-2.48;100.00
36828;BME280;22766;48.042;11.192;2023-01-27T01:50:51;94990.09;;;-2.51;100.00
36828;BME280;22766;48.042;11.192;2023-01-27T01:53:20;94999.59;;;-2.56;100.00
36828;BME280;22766;48.042;11.192;2023-01-27T01:55:48;94998.72;;;-2.55;100.00
36828;BME280;22766;48.042;11.192;2023-01-27T01:58:16;94982.19;;;-2.62;100.00
36828;BME280;22766;48.042;11.192;2023-01-27T02:00:42;94998.09;;;-2.60;100.00
36828;BME280;22766;48.042;11.192;2023-01-27T02:03:10;94990.16;;;-2.52;100.00
36828;BME280;22766;48.042;11.192;2023-01-27T02:05:40;94982.19;;;-2.45;100.00
36828;BME280;22766;48.042;11.192;2023-01-27T02:10:39;94970.38;;;-2.44;100.00
36828;BME280;22766;48.042;11.192;2023-01-27T02:13:05;94970.34;;;-2.27;100.00
36828;BME280;22766;48.042;11.192;2023-01-27T02:15:34;94969.91;;;-2.35;100.00
36828;BME280;22766;48.042;11.192;2023-01-27T02:18:02;94971.78;;;-2.39;100.00
36828;BME280;22766;48.042;11.192;2023-01-27T02:20:45;94963.38;;;-2.39;100.00
36828;BME280;22766;48.042;11.192;2023-01-27T02:28:21;94961.19;;;-1.97;100.00
36828;BME280;22766;48.042;11.192;2023-01-27T02:30:47;94973.81;;;-2.13;100.00
36828;BME280;22766;48.042;11.192;2023-01-27T02:33:15;94980.06;;;-2.20;100.00
36828;BME280;22766;48.042;11.192;2023-01-27T02:35:43;94993.38;;;-2.16;100.00
36828;BME280;22766;48.042;11.192;2023-01-27T02:38:14;95011.09;;;-2.16;100.00
36828;BME280;22766;48.042;11.192;2023-01-27T02:40:43;95016.09;;;-2.15;100.00
36828;BME280;22766;48.042;11.192;2023-01-27T02:43:12;95002.84;;;-2.20;100.00
36828;BME280;22766;48.042;11.192;2023-01-27T02:45:40;94978.16;;;-2.15;100.00
36828;BME280;22766;48.042;11.192;2023-01-27T02:48:07;94961.16;;;-2.13;100.00
36828;BME280;22766;48.042;11.192;2023-01-27T02:50:33;94960.81;;;-2.22;100.00
36828;BME280;22766;48.042;11.192;2023-01-27T02:53:01;94973.75;;;-2.11;100.00
36828;BME280;22766;48.042;11.192;2023-01-27T02:55:28;94976.41;;;-2.14;100.00
36828;BME280;22766;48.042;11.192;2023-01-27T02:57:55;94982.53;;;-2.18;100.00
36828;BME280;22766;48.042;11.192;2023-01-27T03:00:44;94982.47;;;-2.17;100.00
36828;BME280;22766;48.042;11.192;2023-01-27T03:03:11;94970.56;;;-2.15;100.00
36828;BME280;22766;48.042;11.192;2023-01-27T03:05:39;94974.06;;;-2.17;100.00
36828;BME280;22766;48.042;11.192;2023-01-27T03:08:06;94972.50;;;-2.20;100.00
36828;BME280;22766;48.042;11.192;2023-01-27T03:10:33;94970.47;;;-2.13;100.00
36828;BME280;22766;48.042;11.192;2023-01-27T03:13:00;94972.03;;;-2.11;100.00
36828;BME280;22766;48.042;11.192;2023-01-27T03:15:27;94965.50;;;-2.15;100.00
36828;BME280;22766;48.042;11.192;2023-01-27T03:18:12;94962.25;;;-2.17;100.00
36828;BME280;22766;48.042;11.192;2023-01-27T03:20:39;94967.34;;;-2.18;100.00
36828;BME280;22766;48.042;11.192;2023-01-27T03:23:06;94970.22;;;-2.24;100.00
36828;BME280;22766;48.042;11.192;2023-01-27T03:25:34;94960.16;;;-2.26;100.00
36828;BME280;22766;48.042;11.192;2023-01-27T03:28:01;94954.22;;;-2.25;100.00
36828;BME280;22766;48.042;11.192;2023-01-27T03:30:39;94956.00;;;-2.27;100.00
36828;BME280;22766;48.042;11.192;2023-01-27T03:33:17;94961.06;;;-2.27;100.00
36828;BME280;22766;48.042;11.192;2023-01-27T03:35:44;94965.94;;;-2.24;100.00
36828;BME280;22766;48.042;11.192;2023-01-27T03:38:17;94965.06;;;-2.23;100.00
36828;BME280;22766;48.042;11.192;2023-01-27T03:41:03;94962.75;;;-2.27;100.00
36828;BME280;22766;48.042;11.192;2023-01-27T03:43:48;94970.34;;;-2.27;100.00
36828;BME280;22766;48.042;11.192;2023-01-27T03:46:34;94960.22;;;-2.27;100.00
36828;BME280;22766;48.042;11.192;2023-01-27T03:49:00;94971.66;;;-2.20;100.00
36828;BME280;22766;48.042;11.192;2023-01-27T03:51:27;94959.53;;;-2.14;100.00
36828;BME280;22766;48.042;11.192;2023-01-27T03:53:54;94962.25;;;-2.17;100.00
36828;BME280;22766;48.042;11.192;2023-01-27T03:56:20;94968.91;;;-2.16;100.00
36828;BME280;22766;48.042;11.192;2023-01-27T03:58:48;94973.75;;;-2.11;100.00
36828;BME280;22766;48.042;11.192;2023-01-27T04:01:21;94961.16;;;-2.13;100.00
36828;BME280;22766;48.042;11.192;2023-01-27T04:03:50;94958.22;;;-2.21;100.00
36828;BME280;22766;48.042;11.192;2023-01-27T04:06:38;94952.50;;;-2.24;100.00
36828;BME280;22766;48.042;11.192;2023-01-27T04:09:30;94961.41;;;-2.17;100.00
36828;BME280;22766;48.042;11.192;2023-01-27T04:12:00;94958.22;;;-2.21;100.00
36828;BME280;22766;48.042;11.192;2023-01-27T04:19:29;94962.47;;;-2.21;100.00
36828;BME280;22766;48.042;11.192;2023-01-27T04:21:57;94963.13;;;-2.18;100.00
36828;BME280;22766;48.042;11.192;2023-01-27T04:24:24;94965.06;;;-2.23;100.00
36828;BME280;22766;48.042;11.192;2023-01-27T04:26:52;94965.72;;;-2.19;100.00
36828;BME280;22766;48.042;11.192;2023-01-27T04:29:21;94969.97;;;-2.20;100.00
36828;BME280;22766;48.042;11.192;2023-01-27T04:31:49;94954.97;;;-2.23;100.00
36828;BME280;22766;48.042;11.192;2023-01-27T04:34:16;94961.63;;;-2.22;100.00
36828;BME280;22766;48.042;11.192;2023-01-27T04:36:43;94960.81;;;-2.22;100.00
36828;BME280;22766;48.042;11.192;2023-01-27T04:39:10;94955.41;;;-2.15;100.00
36828;BME280;22766;48.042;11.192;2023-01-27T04:41:37;94953.00;;;-2.18;100.00
36828;BME280;22766;48.042;11.192;2023-01-27T04:44:05;94963.94;;;-2.17;100.00
36828;BME280;22766;48.042;11.192;2023-01-27T04:46:32;94952.50;;;-2.24;100.00
36828;BME280;22766;48.042;11.192;2023-01-27T04:48:59;94950.88;;;-2.25;100.00
36828;BME280;22766;48.042;11.192;2023-01-27T04:51:26;94956.56;;;-2.22;100.00
36828;BME280;22766;48.042;11.192;2023-01-27T04:53:54;94961.88;;;-2.26;100.00
36828;BME280;22766;48.042;11.192;2023-01-27T04:58:51;94957.06;;;-2.31;100.00
36828;BME280;22766;48.042;11.192;2023-01-27T05:01:17;94964.41;;;-2.26;100.00
36828;BME280;22766;48.042;11.192;2023-01-27T05:03:44;94968.00;;;-2.30;100.00
36828;BME280;22766;48.042;11.192;2023-01-27T05:06:11;94970.34;;;-2.27;100.00
36828;BME280;22766;48.042;11.192;2023-01-27T05:08:38;94967.31;;;-2.34;100.00
36828;BME280;22766;48.042;11.192;2023-01-27T05:11:05;94967.38;;;-2.35;100.00
36828;BME280;22766;48.042;11.192;2023-01-27T05:13:32;94965.75;;;-2.36;100.00
36828;BME280;22766;48.042;11.192;2023-01-27T05:16:04;94970.78;;;-2.19;100.00
36828;BME280;22766;48.042;11.192;2023-01-27T05:18:31;94971.91;;;-2.25;100.00
36828;BME280;22766;48.042;11.192;2023-01-27T05:20:58;94969.34;;;-2.40;100.00
36828;BME280;22766;48.042;11.192;2023-01-27T05:23:27;94973.47;;;-2.39;100.00
36828;BME280;22766;48.042;11.192;2023-01-27T05:26:11;94977.38;;;-2.49;100.00
36828;BME280;22766;48.042;11.192;2023-01-27T05:28:40;94975.50;;;-2.46;100.00
36828;BME280;22766;48.042;11.192;2023-01-27T05:31:18;94981.88;;;-2.39;100.00
36828;BME280;22766;48.042;11.192;2023-01-27T05:33:47;94987.94;;;-2.41;100.00
36828;BME280;22766;48.042;11.192;2023-01-27T05:36:16;94976.47;;;-2.48;100.00
36828;BME280;22766;48.042;11.192;2023-01-27T05:38:43;94982.63;;;-2.54;100.00
36828;BME280;22766;48.042;11.192;2023-01-27T05:41:11;94986.75;;;-2.51;100.00
36828;BME280;22766;48.042;11.192;2023-01-27T05:43:40;94982.50;;;-2.51;100.00
36828;BME280;22766;48.042;11.192;2023-01-27T05:46:08;94984.34;;;-2.54;100.00
36828;BME280;22766;48.042;11.192;2023-01-27T05:48:38;94997.44;;;-2.46;100.00
36828;BME280;22766;48.042;11.192;2023-01-27T05:51:05;94994.41;;;-2.53;100.00
36828;BME280;22766;48.042;11.192;2023-01-27T05:53:33;94998.56;;;-2.52;100.00
36828;BME280;22766;48.042;11.192;2023-01-27T05:56:00;94996.94;;;-2.53;100.00
36828;BME280;22766;48.042;11.192;2023-01-27T05:58:27;94998.72;;;-2.55;100.00
36828;BME280;22766;48.042;11.192;2023-01-27T06:00:54;94997.81;;;-2.54;100.00
36828;BME280;22766;48.042;11.192;2023-01-27T06:03:21;94998.84;;;-2.58;100.00
36828;BME280;22766;48.042;11.192;2023-01-27T06:05:53;95006.28;;;-2.55;100.00
36828;BME280;22766;48.042;11.192;2023-01-27T06:08:21;95007.69;;;-2.49;100.00
36828;BME280;22766;48.042;11.192;2023-01-27T06:10:48;95007.16;;;-2.56;100.00
36828;BME280;22766;48.042;11.192;2023-01-27T06:13:14;95007.84;;;-2.52;100.00
36828;BME280;22766;48.042;11.192;2023-01-27T06:15:43;95015.56;;;-2.55;100.00
36828;BME280;22766;48.042;11.192;2023-01-27T06:18:10;95017.19;;;-2.54;100.00
36828;BME280;22766;48.042;11.192;2023-01-27T06:20:38;95018.56;;;-2.47;100.00
36828;BME280;22766;48.042;11.192;2023-01-27T06:23:06;95017.56;;;-2.45;100.00
36828;BME280;22766;48.042;11.192;2023-01-27T06:25:40;95023.69;;;-2.49;100.00
36828;BME280;22766;48.042;11.192;2023-01-27T06:28:07;95028.38;;;-2.58;100.00
36828;BME280;22766;48.042;11.192;2023-01-27T06:30:38;95030.00;;;-2.57;100.00
36828;BME280;22766;48.042;11.192;2023-01-27T06:33:06;95029.63;;;-2.50;100.00
36828;BME280;22766;48.042;11.192;2023-01-27T06:35:34;95034.97;;;-2.56;100.00
36828;BME280;22766;48.042;11.192;2023-01-27T06:38:06;95037.56;;;-2.57;100.00
36828;BME280;22766;48.042;11.192;2023-01-27T06:40:34;95040.53;;;-2.66;100.00
36828;BME280;22766;48.042;11.192;2023-01-27T06:43:01;95034.88;;;-2.71;100.00
36828;BME280;22766;48.042;11.192;2023-01-27T06:45:28;95043.28;;;-2.71;100.00
36828;BME280;22766;48.042;11.192;2023-01-27T06:47:56;95041.94;;;-2.78;100.00
36828;BME280;22766;48.042;11.192;2023-01-27T06:50:25;95040.69;;;-2.69;100.00
36828;BME280;22766;48.042;11.192;2023-01-27T06:52:59;95048.78;;;-2.63;100.00
36828;BME280;22766;48.042;11.192;2023-01-27T06:55:27;95043.53;;;-2.58;100.00
36828;BME280;22766;48.042;11.192;2023-01-27T06:57:54;95049.63;;;-2.62;100.00
36828;BME280;22766;48.042;11.192;2023-01-27T07:00:21;95052.56;;;-2.54;100.00
36828;BME280;22766;48.042;11.192;2023-01-27T07:02:48;95043.75;;;-2.63;100.00
36828;BME280;22766;48.042;11.192;2023-01-27T07:05:15;95052.91;;;-2.60;100.00
36828;BME280;22766;48.042;11.192;2023-01-27T07:07:44;95057.94;;;-2.60;100.00
36828;BME280;22766;48.042;11.192;2023-01-27T07:10:11;95060.88;;;-2.69;100.00
36828;BME280;22766;48.042;11.192;2023-01-27T07:12:38;95064.72;;;-2.61;100.00
36828;BME280;22766;48.042;11.192;2023-01-27T07:15:06;95068.41;;;-2.68;100.00
36828;BME280;22766;48.042;11.192;2023-01-27T07:17:33;95063.06;;;-2.62;100.00
36828;BME280;22766;48.042;11.192;2023-01-27T07:20:01;95068.19;;;-2.63;100.00
36828;BME280;22766;48.042;11.192;2023-01-27T07:22:28;95066.31;;;-2.60;100.00
36828;BME280;22766;48.042;11.192;2023-01-27T07:24:54;95066.19;;;-2.57;100.00
36828;BME280;22766;48.042;11.192;2023-01-27T07:27:22;95065.28;;;-2.56;100.00
36828;BME280;22766;48.042;11.192;2023-01-27T07:29:49;95071.03;;;-2.52;100.00
36828;BME280;22766;48.042;11.192;2023-01-27T07:32:16;95071.72;;;-2.49;100.00
36828;BME280;22766;48.042;11.192;2023-01-27T07:34:43;95070.88;;;-2.49;100.00
36828;BME280;22766;48.042;11.192;2023-01-27T07:37:09;95081.81;;;-2.49;100.00
36828;BME280;22766;48.042;11.192;2023-01-27T07:39:36;95072.31;;;-2.44;100.00
36828;BME280;22766;48.042;11.192;2023-01-27T07:42:04;95068.06;;;-2.43;100.00
36828;BME280;22766;48.042;11.192;2023-01-27T07:44:31;95066.22;;;-2.40;100.00
36828;BME280;22766;48.042;11.192;2023-01-27T07:46:58;95066.88;;;-2.36;100.00
36828;BME280;22766;48.042;11.192;2023-01-27T07:49:25;95064.28;;;-2.35;100.00
36828;BME280;22766;48.042;11.192;2023-01-27T07:51:53;95053.28;;;-2.34;100.00
36828;BME280;22766;48.042;11.192;2023-01-27T07:54:20;95053.94;;;-2.30;100.00
36828;BME280;22766;48.042;11.192;2023-01-27T07:56:46;95051.34;;;-2.29;100.00
36828;BME280;22766;48.042;11.192;2023-01-27T07:59:13;95057.63;;;-2.20;100.00
36828;BME280;22766;48.042;11.192;2023-01-27T08:01:40;95050.81;;;-2.18;100.00
36828;BME280;22766;48.042;11.192;2023-01-27T08:04:07;95059.09;;;-2.15;100.00
36828;BME280;22766;48.042;11.192;2023-01-27T08:06:37;95064.84;;;-2.13;100.00
36828;BME280;22766;48.042;11.192;2023-01-27T08:09:04;95060.88;;;-2.17;100.00
36828;BME280;22766;48.042;11.192;2023-01-27T08:11:30;95049.00;;;-2.16;100.00
36828;BME280;22766;48.042;11.192;2023-01-27T08:13:57;95052.28;;;-2.14;100.00
36828;BME280;22766;48.042;11.192;2023-01-27T08:16:24;95061.16;;;-2.06;100.00
36828;BME280;22766;48.042;11.192;2023-01-27T08:18:52;95057.63;;;-2.03;100.00
36828;BME280;22766;48.042;11.192;2023-01-27T08:21:19;95058.47;;;-2.03;100.00
36828;BME280;22766;48.042;11.192;2023-01-27T08:23:46;95062.94;;;-2.08;100.00
36828;BME280;22766;48.042;11.192;2023-01-27T08:26:13;95057.63;;;-2.03;100.00
36828;BME280;22766;48.042;11.192;2023-01-27T08:28:39;95061.66;;;-1.99;100.00
36828;BME280;22766;48.042;11.192;2023-01-27T08:31:12;95060.84;;;-2.00;100.00
36828;BME280;22766;48.042;11.192;2023-01-27T08:33:40;95059.94;;;-1.99;100.00
36828;BME280;22766;48.042;11.192;2023-01-27T08:36:10;95074.06;;;-1.95;100.00
36828;BME280;22766;48.042;11.192;2023-01-27T08:38:37;95075.66;;;-1.92;100.00
36828;BME280;22766;48.042;11.192;2023-01-27T08:41:10;95075.94;;;-1.98;100.00
36828;BME280;22766;48.042;11.192;2023-01-27T08:43:37;95062.31;;;-1.96;100.00
36828;BME280;22766;48.042;11.192;2023-01-27T08:46:04;95076.31;;;-1.88;100.00
36828;BME280;22766;48.042;11.192;2023-01-27T08:48:33;95079.06;;;-1.93;100.00
36828;BME280;22766;48.042;11.192;2023-01-27T08:51:02;95082.31;;;-1.91;100.00
36828;BME280;22766;48.042;11.192;2023-01-27T08:53:29;95081.22;;;-2.03;100.00
36828;BME280;22766;48.042;11.192;2023-01-27T08:55:58;95079.13;;;-1.95;100.00
36828;BME280;22766;48.042;11.192;2023-01-27T08:58:27;95083.66;;;-1.84;100.00
36828;BME280;22766;48.042;11.192;2023-01-27T09:00:54;95080.16;;;-1.81;100.00
36828;BME280;22766;48.042;11.192;2023-01-27T09:03:20;95079.84;;;-1.75;100.00
36828;BME280;22766;48.042;11.192;2023-01-27T09:05:47;95080.16;;;-1.81;100.00
36828;BME280;22766;48.042;11.192;2023-01-27T09:08:13;95083.25;;;-1.76;100.00
36828;BME280;22766;48.042;11.192;2023-01-27T09:10:41;95098.53;;;-1.78;100.00
36828;BME280;22766;48.042;11.192;2023-01-27T09:13:08;95102.19;;;-1.83;100.00
36828;BME280;22766;48.042;11.192;2023-01-27T09:15:36;95106.00;;;-1.75;100.00
36828;BME280;22766;48.042;11.192;2023-01-27T09:18:04;95096.66;;;-1.74;100.00
36828;BME280;22766;48.042;11.192;2023-01-27T09:20:32;95105.66;;;-1.69;100.00
36828;BME280;22766;48.042;11.192;2023-01-27T09:22:59;95116.38;;;-1.64;100.00
36828;BME280;22766;48.042;11.192;2023-01-27T09:25:26;95112.06;;;-1.62;100.00
36828;BME280;22766;48.042;11.192;2023-01-27T09:27:54;95108.50;;;-1.58;100.00
36828;BME280;22766;48.042;11.192;2023-01-27T09:30:21;95108.19;;;-1.69;100.00
36828;BME280;22766;48.042;11.192;2023-01-27T09:32:49;95108.94;;;-1.67;100.00
36828;BME280;22766;48.042;11.192;2023-01-27T09:35:15;95115.88;;;-1.70;100.00
36828;BME280;22766;48.042;11.192;2023-01-27T09:38:03;95115.19;;;-1.57;100.00
36828;BME280;22766;48.042;11.192;2023-01-27T09:40:32;95112.47;;;-1.54;100.00
36828;BME280;22766;48.042;11.192;2023-01-27T09:43:07;95116.50;;;-1.50;100.00
36828;BME280;22766;48.042;11.192;2023-01-27T10:02:07;95113.88;;;-1.31;100.00
36828;BME280;22766;48.042;11.192;2023-01-27T10:04:43;95111.25;;;-1.30;100.00
36828;BME280;22766;48.042;11.192;2023-01-27T10:13:12;95101.31;;;-1.02;100.00
36828;BME280;22766;48.042;11.192;2023-01-27T10:23:46;95104.91;;;-1.06;100.00
36828;BME280;22766;48.042;11.192;2023-01-27T10:26:30;95109.56;;;-0.98;100.00
36828;BME280;22766;48.042;11.192;2023-01-27T10:29:30;95110.06;;;-0.91;100.00
36828;BME280;22766;48.042;11.192;2023-01-27T10:34:57;95113.25;;;-0.88;100.00
36828;BME280;22766;48.042;11.192;2023-01-27T10:54:11;95126.88;;;-0.90;100.00
36828;BME280;22766;48.042;11.192;2023-01-27T10:56:43;95124.03;;;-0.84;100.00
36828;BME280;22766;48.042;11.192;2023-01-27T10:59:33;95131.97;;;-0.75;100.00
36828;BME280;22766;48.042;11.192;2023-01-27T11:02:05;95124.59;;;-0.79;100.00
36828;BME280;22766;48.042;11.192;2023-01-27T11:04:43;95127.47;;;-0.85;100.00
36828;BME280;22766;48.042;11.192;2023-01-27T11:07:17;95131.56;;;-0.83;100.00
36828;BME280;22766;48.042;11.192;2023-01-27T11:09:51;95124.13;;;-0.86;100.00
36828;BME280;22766;48.042;11.192;2023-01-27T11:12:42;95120.78;;;-0.71;100.00
36828;BME280;22766;48.042;11.192;2023-01-27T11:15:18;95116.69;;;-0.73;100.00
36828;BME280;22766;48.042;11.192;2023-01-27T11:17:52;95120.44;;;-0.65;100.00
36828;BME280;22766;48.042;11.192;2023-01-27T11:20:35;95115.19;;;-0.62;100.00
36828;BME280;22766;48.042;11.192;2023-01-27T11:23:20;95107.59;;;-0.62;100.00
36828;BME280;22766;48.042;11.192;2023-01-27T11:34:06;95116.44;;;-0.69;100.00
36828;BME280;22766;48.042;11.192;2023-01-27T11:36:37;95110.63;;;-0.86;100.00
36828;BME280;22766;48.042;11.192;2023-01-27T11:39:04;95112.50;;;-0.90;100.00
36828;BME280;22766;48.042;11.192;2023-01-27T11:41:38;95104.16;;;-0.92;100.00
36828;BME280;22766;48.042;11.192;2023-01-27T11:44:14;95108.69;;;-0.97;100.00
36828;BME280;22766;48.042;11.192;2023-01-27T11:46:44;95105.81;;;-1.07;100.00
36828;BME280;22766;48.042;11.192;2023-01-27T11:49:14;95107.66;;;-1.10;100.00
36828;BME280;22766;48.042;11.192;2023-01-27T11:51:44;95110.13;;;-1.09;100.00
36828;BME280;22766;48.042;11.192;2023-01-27T11:54:20;95111.34;;;-1.00;100.00
36828;BME280;22766;48.042;11.192;2023-01-27T11:56:49;95112.75;;;-0.95;100.00
36828;BME280;22766;48.042;11.192;2023-01-27T11:59:23;95107.75;;;-0.96;100.00
36828;BME280;22766;48.042;11.192;2023-01-27T12:07:37;95102.88;;;-0.99;100.00
36828;BME280;22766;48.042;11.192;2023-01-27T12:13:00;95095.09;;;-0.96;100.00
36828;BME280;22766;48.042;11.192;2023-01-27T12:15:33;95101.97;;;-0.98;100.00
36828;BME280;22766;48.042;11.192;2023-01-27T12:18:11;95097.06;;;-1.01;100.00
36828;BME280;22766;48.042;11.192;2023-01-27T12:20:39;95093.94;;;-1.06;100.00
36828;BME280;22766;48.042;11.192;2023-01-27T12:23:58;95092.47;;;-1.10;100.00
36828;BME280;22766;48.042;11.192;2023-01-27T12:26:02;95091.91;;;-1.15;100.00
36828;BME280;22766;48.042;11.192;2023-01-27T12:31:12;95090.25;;;-1.32;100.00
36828;BME280;22766;48.042;11.192;2023-01-27T12:34:06;95093.03;;;-1.21;100.00
36828;BME280;22766;48.042;11.192;2023-01-27T12:36:39;95092.53;;;-1.27;100.00
36828;BME280;22766;48.042;11.192;2023-01-27T12:41:53;95092.25;;;-1.38;100.00
36828;BME280;22766;48.042;11.192;2023-01-27T12:44:20;95093.19;;;-1.39;100.00
36828;BME280;22766;48.042;11.192;2023-01-27T12:47:00;95094.22;;;-1.43;100.00
36828;BME280;22766;48.042;11.192;2023-01-27T12:49:36;95090.13;;;-1.46;100.00
36828;BME280;22766;48.042;11.192;2023-01-27T12:52:05;95092.56;;;-1.44;100.00
36828;BME280;22766;48.042;11.192;2023-01-27T12:54:34;95088.41;;;-1.45;100.00
36828;BME280;22766;48.042;11.192;2023-01-27T12:57:12;95092.75;;;-1.47;100.00
36828;BME280;22766;48.042;11.192;2023-01-27T12:59:50;95093.88;;;-1.53;100.00
36828;BME280;22766;48.042;11.192;2023-01-27T13:02:20;95096.00;;;-1.45;100.00
36828;BME280;22766;48.042;11.192;2023-01-27T13:04:52;95088.41;;;-1.45;100.00
36828;BME280;22766;48.042;11.192;2023-01-27T13:07:24;95091.88;;;-1.46;100.00
36828;BME280;22766;48.042;11.192;2023-01-27T13:10:01;95094.13;;;-1.42;100.00
36828;BME280;22766;48.042;11.192;2023-01-27T13:12:49;95098.16;;;-1.38;100.00
36828;BME280;22766;48.042;11.192;2023-01-27T13:15:21;95090.47;;;-1.36;100.00
36828;BME280;22766;48.042;11.192;2023-01-27T13:17:58;95093.19;;;-1.39;100.00
36828;BME280;22766;48.042;11.192;2023-01-27T13:20:30;95089.34;;;-1.46;100.00
36828;BME280;22766;48.042;11.192;2023-01-27T13:25:53;95092.38;;;-1.24;100.00
36828;BME280;22766;48.042;11.192;2023-01-27T13:28:25;95088.47;;;-1.14;100.00
36828;BME280;22766;48.042;11.192;2023-01-27T13:30:57;95086.75;;;-1.14;100.00
36828;BME280;22766;48.042;11.192;2023-01-27T13:33:36;95079.47;;;-1.04;100.00
36828;BME280;22766;48.042;11.192;2023-01-27T13:39:03;95080.94;;;-1.00;100.00
36828;BME280;22766;48.042;11.192;2023-01-27T13:41:43;95084.56;;;-0.88;100.00
36828;BME280;22766;48.042;11.192;2023-01-27T13:44:47;95078.91;;;-0.78;100.00
36828;BME280;22766;48.042;11.192;2023-01-27T13:47:23;95081.84;;;-0.70;100.00
36828;BME280;22766;48.042;11.192;2023-01-27T13:50:04;95080.22;;;-0.71;100.00
36828;BME280;22766;48.042;11.192;2023-01-27T13:52:32;95085.09;;;-0.68;100.00
36828;BME280;22766;48.042;11.192;2023-01-27T13:54:59;95078.97;;;-0.64;100.00
36828;BME280;22766;48.042;11.192;2023-01-27T13:58:03;95079.56;;;-0.74;100.00
36828;BME280;22766;48.042;11.192;2023-01-27T14:00:37;95092.72;;;-0.83;100.00
36828;BME280;22766;48.042;11.192;2023-01-27T14:08:51;95093.28;;;-1.10;100.00
36828;BME280;22766;48.042;11.192;2023-01-27T14:11:26;95097.03;;;-1.17;100.00
36828;BME280;22766;48.042;11.192;2023-01-27T14:14:35;95100.72;;;-1.22;100.00
36828;BME280;22766;48.042;11.192;2023-01-27T14:21:14;95107.66;;;-1.26;100.00
36828;BME280;22766;48.042;11.192;2023-01-27T14:24:53;95107.31;;;-1.20;100.00
36828;BME280;22766;48.042;11.192;2023-01-27T14:27:32;95106.28;;;-1.31;100.00
36828;BME280;22766;48.042;11.192;2023-01-27T14:38:25;95113.06;;;-1.16;100.00
36828;BME280;22766;48.042;11.192;2023-01-27T14:41:14;95109.41;;;-1.11;100.00
36828;BME280;22766;48.042;11.192;2023-01-27T14:44:09;95103.34;;;-1.08;100.00
36828;BME280;22766;48.042;11.192;2023-01-27T14:47:00;95113.72;;;-1.13;100.00
36828;BME280;22766;48.042;11.192;2023-01-27T14:52:45;95116.81;;;-1.08;100.00
36828;BME280;22766;48.042;11.192;2023-01-27T14:55:36;95111.28;;;-0.99;100.00
36828;BME280;22766;48.042;11.192;2023-01-27T15:03:55;95106.88;;;-1.11;100.00